Time;durP1;ratioP1;P1;durP2;ratioP2;P2;SDS_P1;SDS_P2;PMS_P1;PMS_P2;Temp;Humidity;BMP_temperature;BMP_pressure;BME280_temperature;BME280_humidity;BME280_pressure;Samples;Min_cycle;Max_cycle;Signal;HPM_P1;HPM_P2
2022/09/16 00:02:20;;;;;;;6.80;1.20;;;;;;;12.11;100.00;101195.16;5094054;28;20039;-81
2022/09/16 00:04:46;;;;;;;8.52;1.20;;;;;;;12.15;100.00;101197.41;5093843;28;20073;-81
2022/09/16 00:07:11;;;;;;;7.97;1.70;;;;;;;12.25;100.00;101194.72;5093978;28;20559;-79
2022/09/16 00:09:37;;;;;;;8.40;1.13;;;;;;;12.37;100.00;101207.91;5093587;28;20024;-80
2022/09/16 00:12:04;;;;;;;7.60;1.30;;;;;;;12.45;100.00;101202.69;5075852;28;20040;-81
2022/09/16 00:14:29;;;;;;;6.28;1.30;;;;;;;12.44;100.00;101209.88;5093837;28;20469;-81
2022/09/16 00:16:55;;;;;;;7.47;1.40;;;;;;;12.41;100.00;101214.66;5093502;28;20039;-80
2022/09/16 00:19:20;;;;;;;7.25;1.10;;;;;;;12.34;100.00;101206.38;5093160;28;20032;-81
2022/09/16 00:21:46;;;;;;;4.72;1.15;;;;;;;12.11;100.00;101205.81;5093744;28;20070;-81
2022/09/16 00:24:14;;;;;;;3.30;1.00;;;;;;;11.86;100.00;101209.84;5075535;28;20043;-81
2022/09/16 00:26:40;;;;;;;6.50;0.98;;;;;;;11.60;100.00;101208.53;5093347;28;20032;-80
2022/09/16 00:29:05;;;;;;;4.13;1.13;;;;;;;11.42;100.00;101210.16;5093924;28;20460;-81
2022/09/16 00:31:30;;;;;;;5.57;1.17;;;;;;;11.27;100.00;101202.56;5075515;28;20109;-81
2022/09/16 00:33:56;;;;;;;6.20;1.08;;;;;;;11.17;100.00;101199.00;5075693;28;20465;-84
2022/09/16 00:36:21;;;;;;;7.40;1.00;;;;;;;11.10;100.00;101190.69;5093446;28;20032;-81
2022/09/16 00:38:54;;;;;;;5.28;1.33;;;;;;;11.12;100.00;101190.56;5093814;28;20028;-81
2022/09/16 00:41:23;;;;;;;5.53;0.82;;;;;;;11.18;100.00;101192.72;5093197;28;20032;-80
2022/09/16 00:43:56;;;;;;;6.20;1.52;;;;;;;11.26;100.00;101190.19;5093405;28;20028;-80
2022/09/16 00:46:42;;;;;;;3.03;1.00;;;;;;;11.29;100.00;101179.28;5093781;28;20036;-81
2022/09/16 00:49:30;;;;;;;8.05;1.38;;;;;;;11.36;100.00;101189.38;5093745;28;20051;-81
2022/09/16 00:52:00;;;;;;;7.78;1.10;;;;;;;11.40;100.00;101196.97;5082418;28;20461;-79
2022/09/16 00:54:28;;;;;;;4.40;1.10;;;;;;;11.52;100.00;101203.03;5093226;28;20078;-82
2022/09/16 00:56:58;;;;;;;3.65;0.80;;;;;;;11.55;100.00;101210.75;5075044;28;20031;-80
2022/09/16 00:59:31;;;;;;;13.52;1.92;;;;;;;11.47;100.00;101222.09;5093453;28;20115;-81
2022/09/16 01:02:00;;;;;;;10.90;1.92;;;;;;;11.26;100.00;101210.69;5093018;28;20388;-79
2022/09/16 01:04:31;;;;;;;3.60;1.10;;;;;;;11.03;100.00;101197.56;5093427;28;20024;-80
2022/09/16 01:06:57;;;;;;;8.02;1.48;;;;;;;10.88;100.00;101196.19;5093552;28;20059;-81
2022/09/16 01:09:24;;;;;;;8.07;1.30;;;;;;;10.78;100.00;101196.16;5093503;28;20083;-81
2022/09/16 01:11:50;;;;;;;3.85;0.80;;;;;;;10.70;100.00;101209.25;5075048;28;20176;-81
2022/09/16 01:17:32;;;;;;;8.38;1.38;;;;;;;10.67;100.00;101222.84;5030646;28;20034;-80
2022/09/16 01:20:19;;;;;;;7.78;1.25;;;;;;;10.59;100.00;101220.81;5085872;28;20044;-80
2022/09/16 01:22:57;;;;;;;5.57;1.25;;;;;;;10.47;100.00;101213.91;5093097;28;20036;-80
2022/09/16 01:26:03;;;;;;;7.55;0.90;;;;;;;10.30;100.00;101212.59;5093218;28;20025;-83
2022/09/16 01:29:06;;;;;;;8.32;1.15;;;;;;;10.11;100.00;101219.44;5092842;28;20024;-81
2022/09/16 01:32:03;;;;;;;9.05;1.10;;;;;;;9.96;100.00;101216.25;5095681;28;20035;-81
2022/09/16 01:34:47;;;;;;;10.70;1.17;;;;;;;9.81;100.00;101218.34;5079481;28;20490;-80
2022/09/16 01:37:27;;;;;;;8.63;1.30;;;;;;;9.74;100.00;101214.50;5097297;28;20093;-81
2022/09/16 01:40:07;;;;;;;5.53;0.82;;;;;;;9.69;100.00;101222.84;5097319;28;20115;-82
2022/09/16 01:42:57;;;;;;;11.52;1.48;;;;;;;9.67;100.00;101229.22;5097219;28;20028;-82
2022/09/16 01:45:35;;;;;;;4.50;0.90;;;;;;;9.70;100.00;101228.97;5078859;28;20081;-82
2022/09/16 01:48:26;;;;;;;6.45;1.25;;;;;;;9.74;100.00;101230.44;5078883;28;20487;-81
2022/09/16 01:51:07;;;;;;;9.23;1.80;;;;;;;9.79;100.00;101224.75;5096732;28;20046;-82
2022/09/16 01:53:35;;;;;;;11.23;1.50;;;;;;;9.81;100.00;101228.13;5062444;28;20032;-82
2022/09/16 01:56:28;;;;;;;5.82;1.65;;;;;;;9.82;100.00;101222.69;5078401;28;20032;-82
2022/09/16 01:59:10;;;;;;;5.22;1.00;;;;;;;9.77;100.00;101227.53;5096715;28;20046;-83
2022/09/16 02:01:55;;;;;;;7.30;1.10;;;;;;;9.76;100.00;101225.81;5096687;28;20349;-82
2022/09/16 02:04:27;;;;;;;5.63;1.08;;;;;;;9.79;100.00;101222.94;5096240;28;20046;-82
2022/09/16 02:06:57;;;;;;;6.18;1.20;;;;;;;9.84;100.00;101226.06;5097122;28;20039;-82
2022/09/16 02:09:29;;;;;;;5.93;1.23;;;;;;;9.89;100.00;101231.84;5096133;28;20035;-82
2022/09/16 02:11:57;;;;;;;9.20;1.38;;;;;;;9.93;100.00;101231.59;5096504;28;20106;-83
2022/09/16 02:14:28;;;;;;;7.30;1.25;;;;;;;9.92;100.00;101227.25;5078034;28;20028;-85
2022/09/16 02:17:00;;;;;;;7.78;1.25;;;;;;;9.89;100.00;101226.50;5078519;28;20337;-83
2022/09/16 02:19:30;;;;;;;10.18;1.38;;;;;;;9.86;100.00;101236.56;5096669;28;20086;-84
2022/09/16 02:22:00;;;;;;;4.23;1.03;;;;;;;9.84;100.00;101246.50;5096071;28;20089;-84
2022/09/16 02:24:28;;;;;;;7.07;1.17;;;;;;;9.79;100.00;101246.88;5096002;28;20028;-85
2022/09/16 02:26:59;;;;;;;6.00;1.17;;;;;;;9.75;100.00;101240.09;5077881;28;20028;-81
2022/09/16 02:29:27;;;;;;;2.10;0.68;;;;;;;9.69;100.00;101236.13;5096612;28;20119;-81
2022/09/16 02:31:59;;;;;;;9.05;1.83;;;;;;;9.65;100.00;101225.88;5096367;28;20036;-83
2022/09/16 02:34:53;;;;;;;5.70;1.15;;;;;;;9.57;100.00;101221.19;5096069;28;20020;-83
2022/09/16 02:37:33;;;;;;;1.35;0.90;;;;;;;9.49;100.00;101221.78;5093249;28;20076;-83
2022/09/16 02:40:04;;;;;;;6.32;0.88;;;;;;;9.49;100.00;101242.19;5095941;28;20077;-87
2022/09/16 02:42:31;;;;;;;9.65;1.33;;;;;;;9.49;100.00;101235.06;5095574;28;20133;-81
2022/09/16 02:44:58;;;;;;;4.32;0.80;;;;;;;9.49;100.00;101226.25;5096185;28;20028;-81
2022/09/16 02:47:32;;;;;;;6.18;0.85;;;;;;;9.49;100.00;101235.06;5095532;28;20028;-83
2022/09/16 02:50:08;;;;;;;6.80;0.80;;;;;;;9.49;100.00;101221.78;5095772;28;20139;-83
2022/09/16 02:52:42;;;;;;;4.05;0.82;;;;;;;9.48;100.00;101220.09;5095746;28;20460;-83
2022/09/16 02:55:29;;;;;;;10.55;0.90;;;;;;;9.46;100.00;101219.34;5077999;28;20032;-84
2022/09/16 02:57:54;;;;;;;7.63;1.27;;;;;;;9.44;100.00;101213.34;5063414;28;20047;-84
2022/09/16 03:00:21;;;;;;;7.25;0.90;;;;;;;9.42;100.00;101209.09;5061197;28;20035;-83
2022/09/16 03:02:46;;;;;;;9.63;1.55;;;;;;;9.35;100.00;101206.94;5095199;28;20035;-83
2022/09/16 03:05:12;;;;;;;9.50;1.40;;;;;;;9.30;100.00;101210.91;5096140;28;20028;-84
2022/09/16 03:07:40;;;;;;;9.55;1.10;;;;;;;9.28;100.00;101207.56;5077638;28;20490;-83
2022/09/16 03:10:07;;;;;;;5.05;0.88;;;;;;;9.23;100.00;101201.78;5095292;28;20032;-84
2022/09/16 03:13:01;;;;;;;3.13;0.80;;;;;;;9.22;100.00;101208.88;5077501;28;20089;-84
2022/09/16 03:15:40;;;;;;;3.28;1.00;;;;;;;9.22;100.00;101208.88;5077334;28;20035;-83
2022/09/16 03:18:26;;;;;;;9.30;1.48;;;;;;;9.25;100.00;101213.94;5095100;28;20522;-83
2022/09/16 03:21:34;;;;;;;5.15;0.88;;;;;;;9.23;100.00;101197.31;5095115;28;20032;-83
2022/09/16 03:24:02;;;;;;;3.47;1.00;;;;;;;9.25;100.00;101202.47;5035712;28;20033;-83
2022/09/16 03:26:57;;;;;;;5.65;1.08;;;;;;;9.28;100.00;101203.06;5087417;28;20044;-84
2022/09/16 03:29:35;;;;;;;6.07;1.17;;;;;;;9.31;100.00;101200.19;5094988;28;20036;-84
2022/09/16 03:32:20;;;;;;;7.03;1.30;;;;;;;9.32;100.00;101201.88;5095297;28;20039;-85
2022/09/16 03:35:00;;;;;;;6.00;1.00;;;;;;;9.33;100.00;101205.38;5094447;28;20451;-83
2022/09/16 03:37:31;;;;;;;12.43;1.65;;;;;;;9.35;100.00;101206.09;5094731;28;20031;-81
2022/09/16 03:40:01;;;;;;;12.25;1.35;;;;;;;9.41;100.00;101204.78;5094947;28;20091;-82
2022/09/16 03:42:27;;;;;;;11.13;1.30;;;;;;;9.44;100.00;101218.66;5094629;28;20031;-81
2022/09/16 03:44:53;;;;;;;8.48;1.13;;;;;;;9.46;100.00;101210.56;5076478;28;20126;-82
2022/09/16 03:47:18;;;;;;;8.63;1.45;;;;;;;9.51;100.00;101219.84;5095068;28;20085;-81
2022/09/16 03:49:44;;;;;;;6.72;1.48;;;;;;;9.55;100.00;101222.25;5076336;28;20400;-84
2022/09/16 03:52:09;;;;;;;9.90;1.17;;;;;;;9.60;100.00;101209.44;5094828;28;20085;-83
2022/09/16 03:54:35;;;;;;;9.70;1.30;;;;;;;9.63;100.00;101210.06;5075676;28;20035;-84
2022/09/16 03:57:01;;;;;;;11.32;1.58;;;;;;;9.60;100.00;101209.44;5076124;28;20105;-82
2022/09/16 03:59:27;;;;;;;7.18;1.20;;;;;;;9.56;100.00;101203.53;5094492;28;20111;-83
2022/09/16 04:01:53;;;;;;;7.05;1.45;;;;;;;9.50;100.00;101199.56;5093913;28;20024;-83
2022/09/16 04:04:18;;;;;;;10.05;1.50;;;;;;;9.45;100.00;101204.41;5094281;28;20035;-83
2022/09/16 04:06:44;;;;;;;11.13;2.20;;;;;;;9.40;100.00;101200.41;5094417;28;20089;-84
2022/09/16 04:09:11;;;;;;;11.15;1.52;;;;;;;9.35;100.00;101200.78;5076615;28;20436;-82
2022/09/16 04:11:37;;;;;;;11.30;1.35;;;;;;;9.31;100.00;101202.00;5094197;28;20039;-84
2022/09/16 04:14:03;;;;;;;6.75;1.20;;;;;;;9.27;100.00;101189.91;5094071;28;20035;-84
2022/09/16 04:16:29;;;;;;;6.45;1.27;;;;;;;9.24;100.00;101195.47;5094516;28;20098;-84
2022/09/16 04:18:55;;;;;;;9.77;1.13;;;;;;;9.19;100.00;101187.88;5075744;28;20036;-84
2022/09/16 04:21:20;;;;;;;10.88;1.70;;;;;;;9.17;100.00;101190.66;5094197;28;20036;-85
2022/09/16 04:23:47;;;;;;;9.00;1.83;;;;;;;9.18;100.00;101183.53;5075379;28;20530;-85
2022/09/16 04:26:13;;;;;;;13.45;1.98;;;;;;;9.20;100.00;101184.28;5076215;28;20135;-85
2022/09/16 04:28:38;;;;;;;14.70;1.63;;;;;;;9.28;100.00;101188.97;5075988;28;20027;-84
2022/09/16 04:31:06;;;;;;;12.15;1.77;;;;;;;9.38;100.00;101189.09;5059160;28;20036;-86
2022/09/16 04:33:34;;;;;;;5.88;1.58;;;;;;;9.47;100.00;101177.72;5075749;28;20329;-81
2022/09/16 04:36:13;;;;;;;13.70;1.48;;;;;;;9.55;100.00;101190.38;5093613;28;20097;-84
2022/09/16 04:38:41;;;;;;;10.10;1.67;;;;;;;9.56;100.00;101178.78;5075803;28;20111;-91
2022/09/16 04:41:26;;;;;;;8.18;1.00;;;;;;;9.56;100.00;101186.75;5093860;28;20040;-87
2022/09/16 04:43:57;;;;;;;7.35;1.30;;;;;;;9.63;100.00;101193.25;5093511;28;20044;-86
2022/09/16 04:46:24;;;;;;;14.65;1.65;;;;;;;9.64;100.00;101192.28;5095630;28;20421;-82
2022/09/16 04:48:51;;;;;;;6.72;1.23;;;;;;;9.70;100.00;101186.47;5075798;28;20189;-86
2022/09/16 04:51:18;;;;;;;7.00;1.15;;;;;;;9.73;100.00;101185.38;5075657;28;20090;-86
2022/09/16 04:53:44;;;;;;;6.40;1.15;;;;;;;9.77;100.00;101185.00;5092919;28;20063;-88
2022/09/16 04:56:20;;;;;;;6.85;1.20;;;;;;;9.84;100.00;101186.19;5092928;28;20109;-86
2022/09/16 04:58:56;;;;;;;7.05;1.25;;;;;;;9.94;100.00;101182.78;5075392;28;20032;-88
2022/09/16 05:01:26;;;;;;;15.02;2.70;;;;;;;10.03;100.00;101189.97;5092561;28;20278;-84
2022/09/16 05:03:54;;;;;;;11.95;1.70;;;;;;;10.10;100.00;101183.19;5092321;28;20039;-84
2022/09/16 05:06:22;;;;;;;8.45;1.17;;;;;;;10.14;100.00;101189.13;5091297;28;20111;-84
2022/09/16 05:08:49;;;;;;;8.32;1.55;;;;;;;10.14;100.00;101192.59;5074231;28;20031;-84
2022/09/16 05:11:20;;;;;;;7.55;1.00;;;;;;;10.06;100.00;101195.91;5074411;28;20055;-83
2022/09/16 05:13:46;;;;;;;8.05;1.00;;;;;;;10.00;100.00;101190.25;5092567;28;20030;-85
2022/09/16 05:16:14;;;;;;;6.60;1.20;;;;;;;9.98;100.00;101189.53;5092021;28;20118;-83
2022/09/16 05:18:41;;;;;;;5.63;1.20;;;;;;;9.98;100.00;101189.53;5092547;28;20028;-82
2022/09/16 05:21:10;;;;;;;5.63;1.40;;;;;;;10.00;100.00;101195.56;5074304;28;20020;-84
2022/09/16 05:23:36;;;;;;;6.00;1.42;;;;;;;10.03;100.00;101197.97;5074321;28;20032;-83
2022/09/16 05:26:03;;;;;;;9.30;1.20;;;;;;;10.05;100.00;101198.69;5057328;28;20098;-85
2022/09/16 05:28:29;;;;;;;4.35;0.80;;;;;;;10.09;100.00;101194.81;5092232;28;20028;-84
2022/09/16 05:30:54;;;;;;;7.40;1.10;;;;;;;10.23;100.00;101210.44;5092290;28;20379;-86
2022/09/16 05:33:19;;;;;;;11.27;1.45;;;;;;;10.35;100.00;101219.25;5091922;28;20028;-87
2022/09/16 05:35:45;;;;;;;11.70;2.03;;;;;;;10.35;100.00;101215.75;5073928;28;20480;-82
2022/09/16 05:38:12;;;;;;;7.07;1.30;;;;;;;10.17;100.00;101216.28;5057263;28;20064;-84
2022/09/16 05:40:37;;;;;;;5.32;1.20;;;;;;;9.98;100.00;101208.13;5092205;28;20084;-85
2022/09/16 05:43:03;;;;;;;7.90;1.67;;;;;;;9.86;100.00;101212.66;5074063;28;20068;-85
2022/09/16 05:45:28;;;;;;;10.93;1.05;;;;;;;9.75;100.00;101212.66;5074373;28;20361;-86
2022/09/16 05:47:53;;;;;;;10.70;1.15;;;;;;;9.69;100.00;101222.00;5052441;28;1119623;-85
2022/09/16 05:50:19;;;;;;;12.43;2.00;;;;;;;9.69;100.00;101219.34;5093743;28;20040;-86
2022/09/16 05:52:44;;;;;;;9.15;1.63;;;;;;;9.74;100.00;101246.38;5093534;28;20483;-91
2022/09/16 05:55:10;;;;;;;21.88;2.22;;;;;;;9.70;100.00;101236.94;5093831;28;20029;-88
2022/09/16 05:57:35;;;;;;;15.43;1.77;;;;;;;9.63;100.00;101233.97;5075378;28;20032;-88
2022/09/16 06:00:03;;;;;;;9.43;2.03;;;;;;;9.53;100.00;101241.81;5075307;28;20040;-86
2022/09/16 06:02:28;;;;;;;10.93;1.65;;;;;;;9.41;100.00;101231.34;5093164;28;20111;-87
2022/09/16 06:04:53;;;;;;;13.75;1.60;;;;;;;9.31;100.00;101237.34;5093476;28;20111;-82
2022/09/16 06:07:19;;;;;;;10.23;2.33;;;;;;;9.19;100.00;101243.63;5092699;28;20127;-86
2022/09/16 06:09:44;;;;;;;9.82;1.55;;;;;;;9.08;100.00;101230.38;5093058;28;20111;-89
2022/09/16 06:12:10;;;;;;;8.27;1.33;;;;;;;8.96;100.00;101230.34;5092870;28;20032;-87
2022/09/16 06:14:35;;;;;;;6.20;1.35;;;;;;;8.88;100.00;101238.03;5093485;28;20089;-87
2022/09/16 06:17:01;;;;;;;4.25;1.08;;;;;;;8.79;100.00;101226.34;5076302;28;20028;-86
2022/09/16 06:19:26;;;;;;;8.00;1.08;;;;;;;8.76;100.00;101231.03;5078313;28;20441;-87
2022/09/16 06:21:52;;;;;;;7.13;1.27;;;;;;;8.75;100.00;101227.56;5096414;28;20040;-86
2022/09/16 06:24:19;;;;;;;7.85;1.23;;;;;;;8.79;100.00;101228.16;5096320;28;20416;-86
2022/09/16 06:26:46;;;;;;;5.72;1.05;;;;;;;8.84;100.00;101231.31;5096265;28;20035;-88
2022/09/16 06:29:12;;;;;;;3.55;0.82;;;;;;;8.92;100.00;101228.88;5078328;28;20024;-86
2022/09/16 06:31:38;;;;;;;6.03;2.10;;;;;;;9.00;100.00;101231.81;5096773;28;20028;-88
2022/09/16 06:34:05;;;;;;;5.55;1.20;;;;;;;9.08;100.00;101230.38;5097251;28;20073;-88
2022/09/16 06:36:33;;;;;;;7.72;1.45;;;;;;;9.12;100.00;101227.34;5096554;28;20063;-86
2022/09/16 06:38:58;;;;;;;5.75;1.23;;;;;;;9.18;100.00;101232.19;5096475;28;20113;-85
2022/09/16 06:41:24;;;;;;;6.38;0.93;;;;;;;9.26;100.00;101230.75;5077891;28;20078;-85
2022/09/16 06:43:50;;;;;;;10.82;1.52;;;;;;;9.38;100.00;101235.06;5080247;28;20056;-85
2022/09/16 06:46:22;;;;;;;8.80;1.10;;;;;;;9.49;100.00;101229.75;5098612;28;20444;-87
2022/09/16 06:48:51;;;;;;;;;;;;;;;9.62;100.00;101229.59;5097270;28;20093;-86
2022/09/16 06:51:24;;;;;;;1.98;0.90;;;;;;;9.73;100.00;101230.56;5095563;28;19916;-85
2022/09/16 06:53:50;;;;;;;4.20;0.88;;;;;;;9.87;100.00;101230.28;5096052;28;20020;-84
2022/09/16 06:56:18;;;;;;;7.85;1.10;;;;;;;10.11;100.00;101216.78;5095674;28;20067;-84
2022/09/16 06:58:47;;;;;;;5.05;0.75;;;;;;;10.46;100.00;101210.38;5096064;28;20040;-85
2022/09/16 07:01:17;;;;;;;6.07;1.38;;;;;;;10.92;100.00;101213.59;5095705;28;20066;-84
2022/09/16 07:03:46;;;;;;;6.90;1.00;;;;;;;11.44;100.00;101208.22;5095636;28;20028;-84
2022/09/16 07:06:13;;;;;;;7.10;1.27;;;;;;;11.91;100.00;101208.47;5095443;28;20062;-83
2022/09/16 07:08:39;;;;;;;9.60;1.30;;;;;;;12.19;100.00;101213.94;5095379;28;20366;-85
2022/09/16 07:11:06;;;;;;;4.05;1.13;;;;;;;12.26;100.00;101222.25;5095777;28;20035;-87
2022/09/16 07:13:32;;;;;;;4.00;0.98;;;;;;;12.13;100.00;101223.34;5095564;28;20445;-85
2022/09/16 07:16:04;;;;;;;5.68;0.90;;;;;;;11.88;100.00;101230.03;5094922;28;20445;-87
2022/09/16 07:18:29;;;;;;;;;;;;;;;11.56;100.00;101225.75;5095162;28;20476;-85
2022/09/16 07:21:06;;;;;;;7.22;1.25;;;;;;;11.26;100.00;101222.16;5095144;28;19912;-84
2022/09/16 07:23:33;;;;;;;4.95;0.88;;;;;;;11.05;100.00;101232.88;5094827;28;20426;-84
2022/09/16 07:26:13;;;;;;;3.50;0.98;;;;;;;10.87;100.00;101231.78;5077058;28;20384;-84
2022/09/16 07:28:40;;;;;;;7.90;1.27;;;;;;;10.70;100.00;101242.06;5094399;28;20455;-83
2022/09/16 07:31:11;;;;;;;2.53;0.80;;;;;;;10.61;100.00;101241.97;5076849;28;20044;-83
2022/09/16 07:33:39;;;;;;;8.98;1.35;;;;;;;10.57;100.00;101234.25;5094922;28;20464;-84
2022/09/16 07:36:06;;;;;;;5.75;1.02;;;;;;;10.56;100.00;101240.56;5094832;28;20035;-85
2022/09/16 07:38:32;;;;;;;4.05;1.23;;;;;;;10.58;100.00;101240.41;5094733;28;20039;-85
2022/09/16 07:41:13;;;;;;;5.47;1.15;;;;;;;10.62;100.00;101238.38;5076678;28;20034;-85
2022/09/16 07:43:39;;;;;;;5.78;1.00;;;;;;;10.76;100.00;101238.00;5094858;28;20032;-82
2022/09/16 07:46:05;;;;;;;6.00;1.08;;;;;;;11.01;100.00;101235.94;5094541;28;20031;-83
2022/09/16 07:48:32;;;;;;;2.33;1.00;;;;;;;11.33;100.00;101233.13;5094507;28;20135;-85
2022/09/16 07:51:03;;;;;;;5.38;1.00;;;;;;;11.63;100.00;101234.91;5094192;28;20395;-86
2022/09/16 07:53:29;;;;;;;3.55;0.95;;;;;;;12.08;100.00;101249.63;5094847;28;20047;-86
2022/09/16 07:56:06;;;;;;;3.10;0.90;;;;;;;12.64;100.00;101250.72;5094907;28;20032;-86
2022/09/16 07:58:32;;;;;;;10.40;1.60;;;;;;;13.06;100.00;101262.84;5094698;28;20031;-89
2022/09/16 08:00:58;;;;;;;14.90;1.52;;;;;;;13.19;100.00;101252.69;5075982;28;20028;-84
2022/09/16 08:03:23;;;;;;;8.43;1.55;;;;;;;13.14;100.00;101264.84;5094345;28;20032;-85
2022/09/16 08:05:49;;;;;;;7.07;1.17;;;;;;;12.92;100.00;101276.69;5060149;28;20510;-86
2022/09/16 08:08:14;;;;;;;8.20;1.50;;;;;;;12.72;100.00;101289.22;5076589;28;20028;-83
2022/09/16 08:10:40;;;;;;;8.43;1.38;;;;;;;12.44;100.00;101289.94;5076113;28;20036;-82
2022/09/16 08:13:06;;;;;;;6.72;1.25;;;;;;;12.19;100.00;101290.47;5060021;28;20043;-82
2022/09/16 08:15:32;;;;;;;6.35;1.65;;;;;;;11.92;100.00;101291.94;5076337;28;20051;-83
2022/09/16 08:17:57;;;;;;;6.20;1.20;;;;;;;11.56;100.00;101273.75;5094136;28;20399;-85
2022/09/16 08:20:24;;;;;;;6.55;1.08;;;;;;;11.23;100.00;101283.69;5094002;28;20027;-84
2022/09/16 08:22:49;;;;;;;4.43;1.15;;;;;;;10.98;100.00;101286.78;5093801;28;20039;-84
2022/09/16 08:25:15;;;;;;;6.32;1.20;;;;;;;10.75;100.00;101287.75;5094151;28;20029;-83
2022/09/16 08:27:40;;;;;;;3.13;1.10;;;;;;;10.66;100.00;101293.84;5093494;28;20032;-82
2022/09/16 08:30:06;;;;;;;9.13;1.88;;;;;;;10.72;100.00;101303.16;5075795;28;20036;-83
2022/09/16 08:32:32;;;;;;;11.52;1.38;;;;;;;11.13;100.00;101330.72;5093457;28;20492;-85
2022/09/16 08:34:57;;;;;;;9.27;1.30;;;;;;;11.78;100.00;101325.19;5094194;28;20039;-86
2022/09/16 08:37:22;;;;;;;9.85;1.45;;;;;;;11.92;100.00;101338.09;5094035;28;20444;-81
2022/09/16 08:39:48;;;;;;;10.70;1.30;;;;;;;11.54;100.00;101337.00;5075535;28;20036;-85
2022/09/16 08:42:16;;;;;;;15.93;1.45;;;;;;;11.04;100.00;101331.53;5093725;28;20043;-85
2022/09/16 08:44:49;;;;;;;5.55;1.13;;;;;;;10.67;100.00;101319.47;5093272;28;20028;-84
2022/09/16 08:47:17;;;;;;;8.50;1.35;;;;;;;10.53;100.00;101323.28;5075807;28;20468;-87
2022/09/16 08:49:45;;;;;;;4.07;1.17;;;;;;;10.51;100.00;101316.41;5075127;28;20048;-87
2022/09/16 08:52:14;;;;;;;4.80;0.70;;;;;;;10.58;100.00;101318.44;5093909;28;20034;-85
2022/09/16 08:54:52;;;;;;;5.68;0.85;;;;;;;10.75;100.00;101327.69;5093889;28;20489;-87
2022/09/16 08:57:26;;;;;;;11.40;1.40;;;;;;;11.12;100.00;101326.38;5095147;28;20036;-89
2022/09/16 08:59:56;;;;;;;7.60;1.15;;;;;;;12.01;100.00;101331.16;5076894;28;20042;-85
2022/09/16 09:02:47;;;;;;;4.30;1.02;;;;;;;12.69;100.00;101333.06;5076384;28;20032;-83
2022/09/16 09:05:39;;;;;;;3.88;0.82;;;;;;;12.67;100.00;101329.69;5094281;28;20545;-86
2022/09/16 09:08:31;;;;;;;10.95;1.38;;;;;;;12.43;100.00;101330.09;5082640;28;20059;-86
2022/09/16 09:11:34;;;;;;;7.20;1.20;;;;;;;12.29;100.00;101326.84;5060084;28;20020;-86
2022/09/16 09:14:14;;;;;;;6.78;0.80;;;;;;;12.22;100.00;101336.38;5094107;28;20467;-87
2022/09/16 09:17:03;;;;;;;8.82;1.27;;;;;;;11.95;100.00;101331.69;5075412;28;20502;-86
2022/09/16 09:19:39;;;;;;;7.60;1.58;;;;;;;11.47;100.00;101327.84;5075993;28;20039;-84
2022/09/16 09:22:49;;;;;;;6.68;1.35;;;;;;;10.92;100.00;101320.91;5075617;28;20479;-83
2022/09/16 09:25:26;;;;;;;8.50;1.63;;;;;;;10.56;100.00;101346.16;5093392;28;20028;-84
2022/09/16 09:28:16;;;;;;;6.78;1.17;;;;;;;10.26;100.00;101339.69;5093242;28;20032;-83
2022/09/16 09:30:59;;;;;;;6.43;1.27;;;;;;;10.15;100.00;101342.34;5075488;28;20055;-83
2022/09/16 09:33:40;;;;;;;5.30;1.08;;;;;;;10.21;100.00;101340.06;5093375;28;20024;-83
2022/09/16 09:36:15;;;;;;;4.38;1.13;;;;;;;10.47;100.00;101338.94;5075773;28;20051;-84
2022/09/16 09:38:52;;;;;;;4.93;1.38;;;;;;;10.80;100.00;101347.75;5075230;28;20032;-92
2022/09/16 09:41:33;;;;;;;4.93;0.95;;;;;;;11.13;100.00;101338.72;5093463;28;20032;-88
2022/09/16 09:44:21;;;;;;;7.43;1.40;;;;;;;11.82;100.00;101334.56;5093617;28;20020;-86
2022/09/16 09:46:56;;;;;;;6.43;1.00;;;;;;;12.63;100.00;101326.47;5075257;28;20062;-88
2022/09/16 09:49:28;;;;;;;7.93;1.13;;;;;;;13.77;100.00;101328.34;5093391;28;20428;-88
2022/09/16 09:51:56;;;;;;;8.70;1.45;;;;;;;14.90;100.00;101330.66;5094731;28;20059;-88
2022/09/16 09:54:24;;;;;;;8.45;1.45;;;;;;;14.91;100.00;101353.78;5096986;28;20036;-84
2022/09/16 09:56:57;;;;;;;10.85;1.48;;;;;;;14.04;100.00;101340.03;5096928;28;20039;-84
2022/09/16 09:59:38;;;;;;;8.70;1.58;;;;;;;12.94;100.00;101323.63;5096831;28;20043;-86
2022/09/16 10:02:16;;;;;;;2.57;1.00;;;;;;;12.10;100.00;101327.66;5078955;28;20080;-87
2022/09/16 10:04:42;;;;;;;5.13;1.02;;;;;;;11.60;100.00;101327.63;5079365;28;20270;-89
2022/09/16 10:07:09;;;;;;;2.60;0.60;;;;;;;11.32;100.00;101331.84;5097875;28;20123;-91
2022/09/16 10:09:35;;;;;;;1.90;0.60;;;;;;;11.14;100.00;101326.25;5097139;28;20381;-86
2022/09/16 10:12:02;;;;;;;8.18;1.23;;;;;;;11.05;100.00;101320.75;5097122;28;20039;-90
2022/09/16 10:14:36;;;;;;;2.33;1.02;;;;;;;11.10;100.00;101323.00;5078706;28;20032;-86
2022/09/16 10:17:04;;;;;;;2.20;0.75;;;;;;;11.46;100.00;101327.00;5096278;28;20420;-81
2022/09/16 10:19:39;;;;;;;5.07;0.93;;;;;;;11.81;100.00;101323.06;5096752;28;20029;-81
2022/09/16 10:22:16;;;;;;;5.68;1.17;;;;;;;11.91;100.00;101319.59;5096798;28;20028;-85
2022/09/16 10:24:42;;;;;;;5.28;1.27;;;;;;;12.22;100.00;101335.56;5096923;28;20024;-87
2022/09/16 10:27:23;;;;;;;8.35;2.08;;;;;;;13.21;100.00;101327.34;5079191;28;20038;-85
2022/09/16 10:30:12;;;;;;;7.97;1.42;;;;;;;14.51;100.00;101320.25;5096004;28;20472;-86
2022/09/16 10:33:00;;;;;;;4.72;0.90;;;;;;;16.27;100.00;101310.22;5096359;28;20028;-87
2022/09/16 10:35:31;;;;;;;2.95;0.80;;;;;;;17.76;90.31;101311.75;5096639;28;20456;-87
2022/09/16 10:38:16;;;;;;;5.70;1.05;;;;;;;19.12;83.52;101315.75;5096164;28;20028;-85
2022/09/16 10:41:00;;;;;;;8.25;1.10;;;;;;;20.25;76.89;101315.56;5096400;28;20028;-85
2022/09/16 10:43:28;;;;;;;4.57;0.80;;;;;;;20.52;67.10;101308.53;5096201;28;20035;-86
2022/09/16 10:45:54;;;;;;;5.22;1.10;;;;;;;19.98;66.90;101312.56;5096034;28;20039;-82
2022/09/16 10:48:26;;;;;;;4.70;0.93;;;;;;;19.34;66.42;101315.84;5096201;28;20045;-83
2022/09/16 10:51:03;;;;;;;4.70;1.00;;;;;;;18.94;69.79;101312.53;5095996;28;20028;-85
2022/09/16 10:53:29;;;;;;;6.10;1.15;;;;;;;18.49;70.55;101312.38;5077698;28;20028;-85
2022/09/16 10:56:17;;;;;;;5.88;1.15;;;;;;;17.40;74.42;101318.44;5095218;28;20051;-88
2022/09/16 10:58:42;;;;;;;6.65;1.33;;;;;;;17.10;79.99;101320.03;5078036;28;20032;-90
2022/09/16 11:01:34;;;;;;;4.97;1.13;;;;;;;16.77;81.14;101319.19;5095801;28;20438;-88
2022/09/16 11:04:15;;;;;;;7.07;1.17;;;;;;;16.62;81.93;101319.03;5064657;28;20464;-85
2022/09/16 11:07:10;;;;;;;9.00;1.77;;;;;;;17.14;77.40;101315.13;5096150;28;20036;-84
2022/09/16 11:10:01;;;;;;;7.15;1.27;;;;;;;17.38;74.87;101323.16;5095283;28;20040;-87
2022/09/16 11:12:46;;;;;;;7.10;1.23;;;;;;;17.34;77.92;101329.06;5095535;28;20082;-87
2022/09/16 11:15:25;;;;;;;6.65;1.05;;;;;;;17.18;76.75;101337.97;5077300;28;20067;-87
2022/09/16 11:18:18;;;;;;;6.20;1.48;;;;;;;16.87;75.16;101344.06;5095441;28;20486;-86
2022/09/16 11:21:08;;;;;;;6.70;1.17;;;;;;;16.29;77.07;101351.19;5096210;28;20055;-89
2022/09/16 11:23:48;;;;;;;11.68;1.50;;;;;;;15.53;81.77;101340.31;5077936;28;20089;-85
2022/09/16 11:26:38;;;;;;;10.90;1.47;;;;;;;15.04;85.92;101343.50;5077849;28;20365;-84
2022/09/16 11:29:41;;;;;;;12.45;1.80;;;;;;;14.80;88.48;101338.78;5077864;28;20278;-90
2022/09/16 11:32:28;;;;;;;9.40;1.30;;;;;;;14.65;87.51;101349.22;5095136;28;20020;-85
2022/09/16 11:35:28;;;;;;;5.63;1.48;;;;;;;14.73;89.25;101354.63;5095629;28;20035;-82
2022/09/16 11:38:09;;;;;;;6.07;1.30;;;;;;;14.73;85.23;101351.94;5059838;28;20032;-88
2022/09/16 11:40:50;;;;;;;15.40;1.95;;;;;;;15.22;84.00;101351.50;5095255;28;20035;-86
2022/09/16 11:43:31;;;;;;;;;;;;;;;15.58;81.24;101345.19;5095395;28;20035;-88
2022/09/16 11:45:59;;;;;;;6.70;1.40;;;;;;;15.61;76.99;101344.88;5094875;28;20003;-87
2022/09/16 11:48:30;;;;;;;9.18;1.08;;;;;;;15.52;77.12;101349.34;5094517;28;20105;-82
2022/09/16 11:51:35;;;;;;;22.63;1.95;;;;;;;15.68;79.08;101345.91;5076231;28;20038;-84